Time;durP1;ratioP1;P1;durP2;ratioP2;P2;SDS_P1;SDS_P2;PMS_P1;PMS_P2;Temp;Humidity;BMP_temperature;BMP_pressure;BME280_temperature;BME280_humidity;BME280_pressure;Samples;Min_cycle;Max_cycle;Signal;HPM_P1;HPM_P2
2022/01/22 00:00:06;;;;;;;18.47;5.60;;;6.30;99.90;;;;;;6213183;23;20217;-52
2022/01/22 00:02:32;;;;;;;23.00;6.07;;;6.30;99.90;;;;;;6213111;23;20575;-52
2022/01/22 00:04:58;;;;;;;12.90;5.37;;;6.30;99.90;;;;;;6212281;23;20370;-52
2022/01/22 00:07:23;;;;;;;18.27;5.03;;;6.30;99.90;;;;;;6213209;23;20167;-52
2022/01/22 00:09:52;;;;;;;13.20;5.80;;;6.30;99.90;;;;;;6212914;23;20161;-52
2022/01/22 00:12:31;;;;;;;19.87;5.23;;;6.30;99.90;;;;;;6213032;23;20173;-52
2022/01/22 00:14:58;;;;;;;13.50;6.13;;;6.30;99.90;;;;;;6212578;23;20466;-51
2022/01/22 00:17:24;;;;;;;12.23;5.00;;;6.30;99.90;;;;;;6212898;23;20382;-52
2022/01/22 00:19:50;;;;;;;9.50;4.70;;;6.40;99.90;;;;;;6213014;23;20476;-52
2022/01/22 00:22:15;;;;;;;10.00;5.50;;;6.40;99.90;;;;;;6213200;23;20863;-52
2022/01/22 00:24:41;;;;;;;16.70;5.20;;;6.40;99.90;;;;;;6212773;23;20200;-52
2022/01/22 00:27:07;;;;;;;10.17;4.87;;;6.30;99.90;;;;;;6186440;23;20178;-52
2022/01/22 00:29:32;;;;;;;10.23;4.67;;;6.30;99.90;;;;;;6212819;23;20209;-53
2022/01/22 00:31:58;;;;;;;13.27;5.10;;;6.40;99.90;;;;;;6212800;23;20158;-52
2022/01/22 00:34:23;;;;;;;15.70;5.10;;;6.40;99.90;;;;;;6212269;23;20182;-52
2022/01/22 00:36:49;;;;;;;16.47;5.20;;;6.30;99.90;;;;;;6212893;23;20154;-51
2022/01/22 00:39:15;;;;;;;12.77;4.27;;;6.30;99.90;;;;;;6212723;23;20143;-52
2022/01/22 00:41:40;;;;;;;13.20;5.10;;;6.30;99.90;;;;;;6212543;23;20181;-52
2022/01/22 00:44:06;;;;;;;9.40;5.17;;;6.30;99.90;;;;;;6212450;23;20165;-52
2022/01/22 00:46:31;;;;;;;9.77;4.57;;;6.30;99.90;;;;;;6212389;23;20206;-52
2022/01/22 00:48:57;;;;;;;11.90;3.90;;;6.30;99.90;;;;;;6212470;23;20489;-52
2022/01/22 00:51:23;;;;;;;6.77;3.50;;;6.30;99.90;;;;;;6212812;23;20589;-53
2022/01/22 00:53:48;;;;;;;8.00;3.63;;;6.30;99.90;;;;;;6212349;23;20209;-52
2022/01/22 00:56:14;;;;;;;9.30;3.67;;;6.40;99.90;;;;;;6212728;23;20166;-52
2022/01/22 00:58:40;;;;;;;6.80;3.73;;;6.40;99.90;;;;;;6212749;23;20146;-52
2022/01/22 01:01:06;;;;;;;8.57;3.60;;;6.40;99.90;;;;;;6212596;23;20154;-52
2022/01/22 01:03:33;;;;;;;12.33;3.83;;;6.40;99.90;;;;;;6212567;23;20478;-52
2022/01/22 01:06:03;;;;;;;12.63;4.23;;;6.30;99.90;;;;;;6212612;23;20159;-53
2022/01/22 01:08:31;;;;;;;11.07;4.40;;;6.30;99.90;;;;;;6212522;23;20397;-52
2022/01/22 01:10:57;;;;;;;8.20;3.40;;;6.30;99.90;;;;;;6212130;23;20407;-52
2022/01/22 01:13:25;;;;;;;6.70;3.40;;;6.20;99.90;;;;;;6212525;23;20503;-52
2022/01/22 01:16:02;;;;;;;9.20;3.93;;;6.30;99.90;;;;;;6212529;23;20466;-52
2022/01/22 01:32:17;;;;;;;9.40;3.53;;;6.10;99.90;;;;;;6211906;23;20389;-52
2022/01/22 01:34:44;;;;;;;17.93;5.60;;;6.10;99.90;;;;;;6212060;23;21200;-51
2022/01/22 01:37:14;;;;;;;11.70;4.50;;;6.10;99.90;;;;;;6212388;23;20958;-52
2022/01/22 01:39:41;;;;;;;8.50;3.63;;;6.00;99.90;;;;;;6212405;23;20370;-53
2022/01/22 01:42:11;;;;;;;16.10;4.13;;;6.00;99.90;;;;;;6211856;23;20390;-52
2022/01/22 01:44:38;;;;;;;10.30;3.50;;;6.00;99.90;;;;;;6212189;23;20484;-53
2022/01/22 01:47:06;;;;;;;15.57;4.57;;;5.90;99.90;;;;;;6211699;23;20437;-52
2022/01/22 01:49:32;;;;;;;10.63;3.93;;;6.00;99.90;;;;;;6212123;23;20389;-52
2022/01/22 01:52:01;;;;;;;13.83;4.30;;;6.00;99.90;;;;;;6212361;23;20372;-52
2022/01/22 01:54:35;;;;;;;10.43;3.80;;;6.00;99.90;;;;;;6185252;23;20190;-52
2022/01/22 01:59:47;;;;;;;10.07;4.30;;;6.00;99.90;;;;;;6211991;23;20939;-52
2022/01/22 02:02:13;;;;;;;18.53;5.10;;;6.00;99.90;;;;;;6211655;23;20377;-52
2022/01/22 02:04:40;;;;;;;17.67;4.50;;;6.00;99.90;;;;;;6212064;23;20368;-53
2022/01/22 02:07:06;;;;;;;12.20;4.70;;;6.00;99.90;;;;;;6212070;23;20154;-53
2022/01/22 02:09:35;;;;;;;17.57;4.80;;;6.00;99.90;;;;;;6211605;23;20388;-52
2022/01/22 02:12:10;;;;;;;17.20;4.40;;;6.00;99.90;;;;;;6211883;23;20456;-52
2022/01/22 02:25:26;;;;;;;12.63;4.40;;;6.00;99.90;;;;;;6211904;23;20377;-52
2022/01/22 02:27:52;;;;;;;12.97;4.77;;;6.00;99.90;;;;;;6212294;23;20377;-52
2022/01/22 02:30:21;;;;;;;18.03;5.87;;;6.00;99.90;;;;;;6213916;23;20460;-52
2022/01/22 02:33:09;;;;;;;15.23;4.40;;;6.00;99.90;;;;;;6214442;23;20444;-52
2022/01/22 02:36:00;;;;;;;16.73;4.87;;;6.00;99.90;;;;;;6213714;23;20400;-53
2022/01/22 02:38:30;;;;;;;14.80;5.63;;;6.00;99.90;;;;;;6212497;23;20389;-52
2022/01/22 02:40:56;;;;;;;14.87;5.90;;;6.00;99.90;;;;;;6187240;23;20538;-53
2022/01/22 02:43:22;;;;;;;16.03;5.90;;;5.90;99.90;;;;;;6214092;23;20851;-52
2022/01/22 02:45:50;;;;;;;15.50;5.87;;;6.00;99.90;;;;;;6213123;23;20205;-52
2022/01/22 02:48:15;;;;;;;22.40;7.60;;;6.00;99.90;;;;;;6211613;23;20409;-52
2022/01/22 02:50:41;;;;;;;19.17;7.20;;;6.00;99.90;;;;;;6211738;23;20435;-54
2022/01/22 02:53:10;;;;;;;26.73;7.70;;;6.00;99.90;;;;;;6211520;23;20153;-52
2022/01/22 02:55:35;;;;;;;24.93;8.13;;;6.00;99.90;;;;;;6211741;23;20523;-52
2022/01/22 02:58:01;;;;;;;17.87;8.40;;;6.00;99.90;;;;;;6211846;23;20377;-52
2022/01/22 03:00:27;;;;;;;22.10;9.53;;;6.00;99.90;;;;;;6211635;23;20170;-53
2022/01/22 03:02:53;;;;;;;27.17;9.73;;;6.00;99.90;;;;;;6211960;23;20816;-52
2022/01/22 03:05:20;;;;;;;26.83;10.50;;;6.00;99.90;;;;;;6211373;23;20511;-52
2022/01/22 03:07:50;;;;;;;20.77;10.30;;;5.90;99.90;;;;;;6211811;23;20139;-52
2022/01/22 03:10:19;;;;;;;24.27;10.87;;;6.00;99.90;;;;;;6212300;23;20462;-53
2022/01/22 03:21:06;;;;;;;27.97;11.67;;;6.00;99.90;;;;;;6221554;23;20460;-53
2022/01/22 03:29:05;;;;;;;32.67;11.30;;;6.00;99.90;;;;;;6211924;23;20508;-53
2022/01/22 03:31:32;;;;;;;30.20;11.73;;;6.00;99.90;;;;;;6211864;23;20358;-52
2022/01/22 03:33:58;;;;;;;30.87;11.07;;;6.00;99.90;;;;;;6211743;23;20988;-53
2022/01/22 03:36:24;;;;;;;28.80;10.80;;;5.90;99.90;;;;;;6211615;23;20365;-52
2022/01/22 03:38:50;;;;;;;25.20;10.33;;;5.90;99.90;;;;;;6211517;23;20150;-52
2022/01/22 03:41:16;;;;;;;31.70;11.20;;;6.00;99.90;;;;;;6211053;23;20681;-52
2022/01/22 03:43:43;;;;;;;34.03;10.80;;;6.00;99.90;;;;;;6211202;23;20166;-52
2022/01/22 03:46:08;;;;;;;24.67;9.70;;;6.00;99.90;;;;;;6168787;23;1019495;-52
2022/01/22 03:48:35;;;;;;;27.83;12.17;;;6.00;99.90;;;;;;6213197;23;20161;-52
2022/01/22 03:51:01;;;;;;;27.20;9.43;;;6.00;99.90;;;;;;6213110;23;20162;-52
2022/01/22 03:53:27;;;;;;;36.20;11.03;;;5.90;99.90;;;;;;6212717;23;20497;-53
2022/01/22 03:58:20;;;;;;;33.33;10.40;;;6.00;99.90;;;;;;6213273;23;20158;-53
2022/01/22 04:00:48;;;;;;;31.37;10.33;;;5.90;99.90;;;;;;6213049;23;20364;-53
2022/01/22 04:03:29;;;;;;;35.83;9.13;;;5.90;99.90;;;;;;6213284;23;20169;-53
2022/01/22 04:08:39;;;;;;;31.30;9.10;;;6.00;99.90;;;;;;6212935;23;20364;-52
2022/01/22 04:11:09;;;;;;;31.20;8.90;;;5.90;99.90;;;;;;6213245;23;20370;-52
2022/01/22 04:13:35;;;;;;;26.93;7.73;;;5.90;99.90;;;;;;6213154;23;20409;-52
2022/01/22 04:16:01;;;;;;;31.67;9.40;;;5.90;99.90;;;;;;6213039;23;20366;-53
2022/01/22 04:29:24;;;;;;;26.57;10.03;;;6.00;99.90;;;;;;6222724;23;20464;-52
2022/01/22 04:31:50;;;;;;;25.50;8.50;;;6.00;99.90;;;;;;6213269;23;20995;-53
2022/01/22 04:34:16;;;;;;;22.50;9.43;;;6.00;99.90;;;;;;6212838;23;20508;-52
2022/01/22 04:36:42;;;;;;;30.70;8.20;;;6.00;99.90;;;;;;6212828;23;21120;-52
2022/01/22 04:39:08;;;;;;;26.83;8.40;;;6.00;99.90;;;;;;6212547;23;20515;-53
2022/01/22 04:41:34;;;;;;;24.40;8.17;;;6.00;99.90;;;;;;6212405;23;20139;-52
2022/01/22 04:44:02;;;;;;;20.87;8.27;;;6.00;99.90;;;;;;6212750;23;20166;-52
2022/01/22 04:46:49;;;;;;;21.10;9.20;;;5.90;99.90;;;;;;6212537;23;20230;-52
2022/01/22 04:57:12;;;;;;;25.73;9.97;;;5.90;99.90;;;;;;6212598;23;20400;-53
2022/01/22 04:59:37;;;;;;;24.73;9.00;;;5.90;99.90;;;;;;6212252;23;20682;-53
2022/01/22 05:02:03;;;;;;;29.60;9.40;;;5.90;99.90;;;;;;6212380;23;20154;-53
2022/01/22 05:04:29;;;;;;;25.33;8.57;;;5.90;99.90;;;;;;6212100;23;20150;-53
2022/01/22 05:06:54;;;;;;;26.30;8.40;;;5.90;99.90;;;;;;6212233;23;20201;-53
2022/01/22 05:09:20;;;;;;;34.87;8.50;;;5.90;99.90;;;;;;6212475;23;20151;-52
2022/01/22 05:11:45;;;;;;;29.07;9.70;;;5.90;99.90;;;;;;6212224;23;20153;-53
2022/01/22 05:14:11;;;;;;;28.83;9.70;;;5.90;99.90;;;;;;6212278;23;20182;-52
2022/01/22 05:16:37;;;;;;;26.53;8.77;;;6.00;99.90;;;;;;6212525;23;20181;-53
2022/01/22 05:19:11;;;;;;;30.53;8.87;;;6.00;99.90;;;;;;6212197;23;20562;-53
2022/01/22 05:21:38;;;;;;;31.90;9.57;;;5.90;99.90;;;;;;6212567;23;20368;-53
2022/01/22 05:24:09;;;;;;;33.43;10.40;;;5.90;99.90;;;;;;6212240;23;21130;-53
2022/01/22 05:37:06;;;;;;;36.60;11.53;;;5.90;99.90;;;;;;6212260;23;20826;-52
2022/01/22 05:39:34;;;;;;;34.97;10.90;;;5.90;99.90;;;;;;6212209;23;20370;-52
2022/01/22 05:42:03;;;;;;;29.00;12.00;;;5.90;99.90;;;;;;6212559;23;20460;-53
2022/01/22 05:44:32;;;;;;;27.00;11.53;;;5.90;99.90;;;;;;6212160;23;20391;-52
2022/01/22 05:47:03;;;;;;;31.60;12.13;;;5.90;99.90;;;;;;6211883;23;20494;-53
2022/01/22 05:49:31;;;;;;;33.97;13.47;;;5.90;99.90;;;;;;6211755;23;20797;-52
2022/01/22 05:51:59;;;;;;;37.87;12.47;;;5.90;99.90;;;;;;6212382;23;20362;-52
2022/01/22 05:59:39;;;;;;;37.27;12.93;;;5.90;99.90;;;;;;6211791;23;20472;-52
2022/01/22 06:02:10;;;;;;;38.20;14.10;;;5.90;99.90;;;;;;6211958;23;20658;-52
2022/01/22 06:04:36;;;;;;;42.50;14.17;;;5.80;99.90;;;;;;6211794;23;20381;-53
2022/01/22 06:07:03;;;;;;;41.07;14.07;;;5.90;99.90;;;;;;6212242;23;20761;-52
2022/01/22 06:09:31;;;;;;;43.13;13.67;;;5.80;99.90;;;;;;6212149;23;20366;-52
2022/01/22 06:14:35;;;;;;;43.90;15.97;;;5.80;99.90;;;;;;6221947;23;20422;-52
2022/01/22 06:17:00;;;;;;;48.63;15.43;;;5.80;99.90;;;;;;6212097;23;20370;-52
2022/01/22 06:19:26;;;;;;;55.10;16.17;;;5.80;99.90;;;;;;6211964;23;20445;-52
2022/01/22 06:21:52;;;;;;;55.00;16.90;;;5.80;99.90;;;;;;6211758;23;20166;-52
2022/01/22 06:24:18;;;;;;;54.10;16.50;;;5.80;99.90;;;;;;6212145;23;20555;-52
2022/01/22 06:26:45;;;;;;;42.67;14.90;;;5.80;99.90;;;;;;6211519;23;20381;-53
2022/01/22 06:29:10;;;;;;;55.40;15.33;;;5.80;99.90;;;;;;6212178;23;20825;-52
2022/01/22 06:31:36;;;;;;;43.83;15.30;;;5.80;99.90;;;;;;6211720;23;20370;-52
2022/01/22 06:34:03;;;;;;;44.10;15.03;;;5.80;99.90;;;;;;6211714;23;20220;-53
2022/01/22 06:36:29;;;;;;;47.17;15.30;;;5.80;99.90;;;;;;6211747;23;20149;-53
2022/01/22 06:39:16;;;;;;;47.27;13.67;;;5.80;99.90;;;;;;6211622;23;20362;-53
2022/01/22 06:41:45;;;;;;;43.60;14.10;;;5.80;99.90;;;;;;6211813;23;20408;-52
2022/01/22 06:44:17;;;;;;;53.03;14.97;;;5.80;99.90;;;;;;6211932;23;20389;-53
2022/01/22 06:46:45;;;;;;;43.30;14.40;;;5.80;99.90;;;;;;6211576;23;20525;-52
2022/01/22 06:49:10;;;;;;;39.40;14.17;;;5.80;99.90;;;;;;6211582;23;20370;-52
2022/01/22 06:51:36;;;;;;;41.97;13.23;;;5.80;99.90;;;;;;6211456;23;20416;-53
2022/01/22 06:54:04;;;;;;;50.30;13.87;;;5.80;99.90;;;;;;6211912;23;20174;-53
2022/01/22 06:56:30;;;;;;;38.63;14.17;;;5.80;99.90;;;;;;6211780;23;20385;-53
2022/01/22 06:59:00;;;;;;;48.17;14.63;;;5.80;99.90;;;;;;6211565;23;20445;-52
2022/01/22 07:01:26;;;;;;;37.87;13.83;;;5.90;99.90;;;;;;6211919;23;20154;-52
2022/01/22 07:03:53;;;;;;;33.33;12.10;;;5.80;99.90;;;;;;6211817;23;20485;-52
2022/01/22 07:06:20;;;;;;;40.43;13.50;;;5.80;99.90;;;;;;6212017;23;20828;-59
2022/01/22 07:08:45;;;;;;;38.23;13.10;;;5.80;99.90;;;;;;6211623;23;20374;-52
2022/01/22 07:11:12;;;;;;;38.77;12.67;;;5.80;99.90;;;;;;6211941;23;20494;-52
2022/01/22 07:13:38;;;;;;;39.00;12.67;;;5.80;99.90;;;;;;6211672;23;20178;-52
2022/01/22 07:16:04;;;;;;;40.43;13.37;;;5.80;99.90;;;;;;6213648;23;20369;-52
2022/01/22 07:18:30;;;;;;;40.40;13.90;;;5.80;99.90;;;;;;6213357;23;20159;-52
2022/01/22 07:20:56;;;;;;;37.43;12.93;;;5.90;99.90;;;;;;6213494;23;20366;-56
2022/01/22 07:26:00;;;;;;;42.63;13.27;;;5.80;99.90;;;;;;6223927;23;20138;-52
2022/01/22 07:28:26;;;;;;;42.53;11.77;;;5.80;99.90;;;;;;6213258;23;20991;-52
2022/01/22 07:30:52;;;;;;;40.70;12.90;;;5.80;99.90;;;;;;6213248;23;20381;-51
2022/01/22 07:33:18;;;;;;;62.30;14.27;;;5.80;99.90;;;;;;6213248;23;20170;-52
2022/01/22 07:35:44;;;;;;;49.07;13.50;;;5.80;99.90;;;;;;6212984;23;20447;-53
2022/01/22 07:38:10;;;;;;;48.33;14.57;;;5.80;99.90;;;;;;6213296;23;20457;-52
2022/01/22 07:40:36;;;;;;;41.00;12.77;;;5.80;99.90;;;;;;6213287;23;20225;-53
2022/01/22 07:43:01;;;;;;;43.90;13.33;;;5.80;99.90;;;;;;6212983;23;20490;-53
2022/01/22 07:45:27;;;;;;;48.13;13.70;;;5.80;99.90;;;;;;6212891;23;20447;-52
2022/01/22 07:47:53;;;;;;;36.20;11.80;;;5.80;99.90;;;;;;6212865;23;20477;-53
2022/01/22 07:50:18;;;;;;;44.70;12.30;;;5.80;99.90;;;;;;6212945;23;20166;-52
2022/01/22 07:52:44;;;;;;;45.13;12.67;;;5.80;99.90;;;;;;6213466;23;20158;-52
2022/01/22 07:55:09;;;;;;;44.67;12.93;;;5.80;99.90;;;;;;6213560;23;20875;-52
2022/01/22 07:57:35;;;;;;;36.03;12.27;;;5.80;99.90;;;;;;6212770;23;20573;-52
2022/01/22 08:00:00;;;;;;;47.97;10.50;;;5.80;99.90;;;;;;6213021;23;20192;-53
2022/01/22 08:02:26;;;;;;;30.17;9.80;;;5.80;99.90;;;;;;6212741;23;20155;-52
2022/01/22 08:04:52;;;;;;;32.87;10.30;;;5.80;99.90;;;;;;6212922;23;20502;-53
2022/01/22 08:07:17;;;;;;;29.53;8.30;;;5.80;99.90;;;;;;6186307;23;20201;-52
2022/01/22 08:09:45;;;;;;;32.30;9.70;;;5.90;99.90;;;;;;6185981;23;20173;-52
2022/01/22 08:12:11;;;;;;;17.87;8.60;;;5.90;99.90;;;;;;6212826;23;20209;-53
2022/01/22 08:14:36;;;;;;;30.37;7.80;;;5.90;99.90;;;;;;6212470;23;20429;-53
2022/01/22 08:17:02;;;;;;;23.70;8.90;;;5.90;99.90;;;;;;6212747;23;20174;-52
2022/01/22 08:19:28;;;;;;;20.17;7.50;;;5.90;99.90;;;;;;6212532;23;20154;-52
2022/01/22 08:21:53;;;;;;;21.67;8.63;;;6.00;99.90;;;;;;6212988;23;20139;-52
2022/01/22 08:24:23;;;;;;;27.07;8.07;;;6.00;99.90;;;;;;6212881;23;20492;-53
2022/01/22 08:27:03;;;;;;;18.80;8.17;;;6.00;99.90;;;;;;6212044;23;20158;-52
2022/01/22 08:29:29;;;;;;;18.63;8.10;;;6.00;99.90;;;;;;6212705;23;20366;-52
2022/01/22 08:32:06;;;;;;;18.40;8.33;;;6.00;99.90;;;;;;6213688;23;20366;-52
2022/01/22 08:37:16;;;;;;;18.30;7.50;;;6.00;99.90;;;;;;6212600;23;20404;-53
2022/01/22 08:39:43;;;;;;;26.40;8.87;;;6.00;99.90;;;;;;6212583;23;20480;-52
2022/01/22 08:42:08;;;;;;;26.17;7.87;;;6.00;99.90;;;;;;6212486;23;20165;-53
2022/01/22 08:44:34;;;;;;;22.90;7.80;;;6.10;99.90;;;;;;6212488;23;20765;-53
2022/01/22 08:47:00;;;;;;;26.03;8.40;;;6.10;99.90;;;;;;6212440;23;20213;-52
2022/01/22 08:49:26;;;;;;;20.00;8.73;;;6.10;99.90;;;;;;6212732;23;20860;-53
2022/01/22 08:51:52;;;;;;;28.93;8.30;;;6.10;99.90;;;;;;6212832;23;20475;-53
2022/01/22 08:54:18;;;;;;;20.60;8.20;;;6.10;99.90;;;;;;6212419;23;20186;-53
2022/01/22 08:56:44;;;;;;;23.37;8.30;;;6.10;99.90;;;;;;6212019;23;20381;-52
2022/01/22 08:59:09;;;;;;;20.67;8.30;;;6.10;99.90;;;;;;6212359;23;20396;-53
2022/01/22 09:01:38;;;;;;;26.93;7.87;;;6.10;99.90;;;;;;6212338;23;20570;-52
2022/01/22 09:04:04;;;;;;;23.50;8.17;;;6.10;99.90;;;;;;6212364;23;20159;-53
2022/01/22 09:06:29;;;;;;;28.87;8.30;;;6.10;99.90;;;;;;6212843;23;20368;-53
2022/01/22 09:09:06;;;;;;;28.63;8.63;;;6.20;99.90;;;;;;6212186;23;20181;-52
2022/01/22 09:11:32;;;;;;;29.33;8.93;;;6.30;99.90;;;;;;6212123;23;20216;-53
2022/01/22 09:13:57;;;;;;;25.10;9.10;;;6.20;99.90;;;;;;6212287;23;20413;-52
2022/01/22 09:16:23;;;;;;;29.63;9.13;;;6.20;99.90;;;;;;6212441;23;20196;-53
2022/01/22 09:18:50;;;;;;;34.13;9.20;;;6.30;99.90;;;;;;6212308;23;20819;-53
2022/01/22 09:21:16;;;;;;;25.63;8.60;;;6.30;99.90;;;;;;6212527;23;20143;-53
2022/01/22 09:23:41;;;;;;;22.23;10.10;;;6.20;99.90;;;;;;6212080;23;20376;-52
2022/01/22 09:26:07;;;;;;;18.00;8.10;;;6.30;99.90;;;;;;6212190;23;20165;-53
2022/01/22 09:28:35;;;;;;;22.43;7.67;;;6.20;99.90;;;;;;6212331;23;20157;-53
2022/01/22 09:31:00;;;;;;;20.70;7.53;;;6.20;99.90;;;;;;6212468;23;20237;-53
2022/01/22 09:33:26;;;;;;;26.23;8.70;;;6.20;99.90;;;;;;6211629;23;20412;-53
2022/01/22 09:35:52;;;;;;;16.17;7.57;;;6.30;99.90;;;;;;6212076;23;20190;-53
2022/01/22 09:38:17;;;;;;;23.13;8.23;;;6.30;99.90;;;;;;6211506;23;20143;-53
2022/01/22 09:40:43;;;;;;;16.03;7.60;;;6.30;99.90;;;;;;6212513;23;20162;-53
2022/01/22 09:43:11;;;;;;;20.20;7.50;;;6.30;99.90;;;;;;6212385;23;20508;-53
2022/01/22 09:45:36;;;;;;;21.33;7.80;;;6.30;99.90;;;;;;6191940;23;20209;-53
2022/01/22 09:48:02;;;;;;;17.43;6.80;;;6.30;99.90;;;;;;6212196;23;20374;-53
2022/01/22 09:50:30;;;;;;;17.17;7.90;;;6.40;99.90;;;;;;6212124;23;20161;-53
2022/01/22 09:52:57;;;;;;;15.73;6.33;;;6.40;99.90;;;;;;6235987;23;20476;-53
2022/01/22 09:55:23;;;;;;;13.67;6.20;;;6.40;99.90;;;;;;6212210;23;20426;-53
2022/01/22 09:57:49;;;;;;;22.83;7.43;;;6.40;99.90;;;;;;6212269;23;20396;-53
2022/01/22 10:00:18;;;;;;;16.57;7.20;;;6.50;99.90;;;;;;6212234;23;20381;-54
2022/01/22 10:02:49;;;;;;;19.77;8.17;;;6.60;99.90;;;;;;6212153;23;20408;-53
2022/01/22 10:05:39;;;;;;;17.90;7.00;;;6.60;99.90;;;;;;6212186;23;20809;-53
2022/01/22 10:08:28;;;;;;;18.43;6.67;;;6.60;99.90;;;;;;6212529;23;20370;-53
2022/01/22 10:10:56;;;;;;;18.30;6.97;;;6.70;99.90;;;;;;6212325;23;20427;-52
2022/01/22 10:13:41;;;;;;;17.40;6.77;;;6.70;99.90;;;;;;6212028;23;20670;-53
2022/01/22 10:16:13;;;;;;;15.97;6.47;;;6.70;99.90;;;;;;6212569;23;20869;-53
2022/01/22 10:18:39;;;;;;;18.83;6.93;;;6.80;99.90;;;;;;6211974;23;20692;-53
2022/01/22 10:21:09;;;;;;;26.93;8.10;;;6.80;99.90;;;;;;6212249;23;20460;-53
2022/01/22 10:23:39;;;;;;;16.07;7.40;;;6.70;99.90;;;;;;6212278;23;20578;-53
2022/01/22 10:26:07;;;;;;;17.10;7.70;;;6.80;99.90;;;;;;6212067;23;20392;-53
2022/01/22 10:28:41;;;;;;;23.90;7.93;;;6.80;99.90;;;;;;6212370;23;20449;-53
2022/01/22 10:31:10;;;;;;;23.97;9.40;;;6.80;99.90;;;;;;6212170;23;20452;-54
2022/01/22 10:33:36;;;;;;;19.37;8.47;;;6.70;99.90;;;;;;6211497;23;20710;-53
2022/01/22 10:36:10;;;;;;;19.80;9.87;;;6.70;99.90;;;;;;6211566;23;20358;-53
2022/01/22 10:38:50;;;;;;;23.33;9.33;;;6.70;99.90;;;;;;6210053;23;20407;-54
2022/01/22 10:41:19;;;;;;;25.70;10.10;;;6.70;99.90;;;;;;6211995;23;20373;-53
2022/01/22 10:43:53;;;;;;;22.67;10.13;;;6.70;99.90;;;;;;6211769;23;20366;-53
2022/01/22 10:46:31;;;;;;;26.27;10.23;;;6.70;99.90;;;;;;6211707;23;20437;-53
2022/01/22 10:49:00;;;;;;;26.30;10.00;;;6.70;99.90;;;;;;6212046;23;20358;-53
2022/01/22 10:51:30;;;;;;;21.43;8.77;;;6.80;99.90;;;;;;6213605;23;20381;-53
2022/01/22 10:54:02;;;;;;;22.47;8.70;;;6.70;99.90;;;;;;6213655;23;20456;-53
2022/01/22 10:56:30;;;;;;;24.17;8.43;;;6.80;99.90;;;;;;6213780;23;20408;-53
2022/01/22 10:58:56;;;;;;;18.50;7.30;;;6.80;99.90;;;;;;6213855;23;20786;-53
2022/01/22 11:01:44;;;;;;;16.53;7.30;;;6.80;99.90;;;;;;6213952;23;20463;-52
2022/01/22 11:04:14;;;;;;;21.37;7.37;;;6.90;99.90;;;;;;6212766;23;20397;-53
2022/01/22 11:06:54;;;;;;;13.87;6.30;;;6.90;99.90;;;;;;6213546;23;20378;-53
2022/01/22 11:09:22;;;;;;;16.43;5.23;;;7.00;99.90;;;;;;6213686;23;20366;-54
2022/01/22 11:11:48;;;;;;;7.73;3.73;;;7.00;99.90;;;;;;6213512;23;20373;-53
2022/01/22 11:14:14;;;;;;;18.67;3.97;;;7.00;99.90;;;;;;6213584;23;21073;-53
2022/01/22 11:16:42;;;;;;;18.40;3.83;;;7.10;99.90;;;;;;6213471;23;20382;-53
2022/01/22 11:19:09;;;;;;;11.40;4.23;;;7.10;99.90;;;;;;6213262;23;20150;-53
2022/01/22 11:21:40;;;;;;;3.33;2.53;;;7.10;99.90;;;;;;6213250;23;20362;-53
2022/01/22 11:24:08;;;;;;;5.23;2.30;;;7.10;99.90;;;;;;6213192;23;20366;-53
2022/01/22 11:26:35;;;;;;;7.93;2.80;;;7.10;99.90;;;;;;6213799;23;21039;-53
2022/01/22 11:29:01;;;;;;;7.07;2.37;;;7.10;99.90;;;;;;6213584;23;20378;-53
2022/01/22 11:31:27;;;;;;;3.20;1.83;;;7.20;99.90;;;;;;6213715;23;20362;-53
2022/01/22 11:33:55;;;;;;;3.53;2.57;;;7.20;99.90;;;;;;6213124;23;20440;-54
2022/01/22 11:36:28;;;;;;;4.17;2.80;;;7.10;99.90;;;;;;6213449;23;20668;-53
2022/01/22 11:39:00;;;;;;;4.30;2.53;;;7.20;99.90;;;;;;6213440;23;20374;-53
2022/01/22 11:41:26;;;;;;;4.50;2.90;;;7.20;99.90;;;;;;6213437;23;20477;-54
2022/01/22 11:44:06;;;;;;;5.63;3.40;;;7.10;99.90;;;;;;6213399;23;20424;-52
2022/01/22 11:46:59;;;;;;;5.87;3.77;;;7.10;99.90;;;;;;6213767;23;20436;-53
2022/01/22 11:49:29;;;;;;;5.83;3.90;;;7.00;99.90;;;;;;6212948;23;20424;-53
2022/01/22 11:52:24;;;;;;;6.40;4.60;;;7.00;99.90;;;;;;6186747;23;20746;-54
2022/01/22 11:54:51;;;;;;;10.37;6.07;;;7.00;99.90;;;;;;6209982;23;20531;-54
2022/01/22 11:57:17;;;;;;;9.77;5.77;;;7.00;99.90;;;;;;6213777;23;20377;-53
2022/01/22 11:59:46;;;;;;;10.60;6.20;;;7.00;99.90;;;;;;6212977;23;20373;-53
2022/01/22 12:02:16;;;;;;;12.40;6.00;;;7.00;99.90;;;;;;6212978;23;20564;-53
2022/01/22 12:04:41;;;;;;;11.50;6.37;;;7.10;99.90;;;;;;6216099;23;20468;-54
2022/01/22 12:07:07;;;;;;;10.20;5.60;;;7.00;99.90;;;;;;6213499;23;20405;-54
2022/01/22 12:09:42;;;;;;;12.20;5.43;;;7.00;99.90;;;;;;6212869;23;20158;-54
2022/01/22 12:15:13;;;;;;;8.90;4.43;;;7.10;99.90;;;;;;6212853;23;20444;-54
2022/01/22 12:18:01;;;;;;;7.10;4.43;;;7.00;99.90;;;;;;6213393;23;20424;-53
2022/01/22 12:23:02;;;;;;;5.70;4.27;;;7.10;99.90;;;;;;6213231;23;20366;-53
2022/01/22 12:25:30;;;;;;;7.33;4.63;;;7.10;99.90;;;;;;6212786;23;20382;-54
2022/01/22 12:27:56;;;;;;;14.03;4.50;;;7.10;99.90;;;;;;6212938;23;20402;-53
2022/01/22 12:30:42;;;;;;;9.40;4.73;;;7.10;99.90;;;;;;6212694;23;20693;-53
2022/01/22 12:33:13;;;;;;;8.53;4.40;;;7.20;99.90;;;;;;6212313;23;20438;-54
2022/01/22 12:35:47;;;;;;;10.63;4.30;;;7.20;99.90;;;;;;6212851;23;20417;-54
2022/01/22 12:42:11;;;;;;;7.57;4.50;;;7.10;99.90;;;;;;6212842;23;20416;-53
2022/01/22 12:44:09;;;;;;;6.67;4.30;;;7.10;99.90;;;;;;6191724;23;20859;-54
2022/01/22 12:46:35;;;;;;;7.83;4.47;;;7.20;99.90;;;;;;6212543;23;20571;-54
2022/01/22 12:49:06;;;;;;;6.20;4.00;;;7.10;99.90;;;;;;6212561;23;20366;-53
2022/01/22 12:51:33;;;;;;;6.70;5.07;;;7.10;99.90;;;;;;6213091;23;20400;-54
2022/01/22 12:53:59;;;;;;;6.93;4.77;;;7.10;99.90;;;;;;6212595;23;20512;-53
2022/01/22 12:59:02;;;;;;;5.00;4.07;;;7.20;99.90;;;;;;6213326;23;20143;-53
2022/01/22 13:01:30;;;;;;;9.30;4.90;;;7.20;99.90;;;;;;6212734;23;20388;-54
2022/01/22 13:03:58;;;;;;;8.00;4.63;;;7.20;99.90;;;;;;6212400;23;20440;-53
2022/01/22 13:06:35;;;;;;;11.47;5.30;;;7.30;99.90;;;;;;6212407;23;20816;-53
2022/01/22 13:09:02;;;;;;;8.80;4.80;;;7.30;99.90;;;;;;6212585;23;20373;-53
2022/01/22 13:11:29;;;;;;;9.17;5.33;;;7.30;99.90;;;;;;6212536;23;21011;-53
2022/01/22 13:13:55;;;;;;;9.10;5.23;;;7.20;99.90;;;;;;6212282;23;20425;-52
2022/01/22 13:16:21;;;;;;;5.70;4.20;;;7.20;99.90;;;;;;6212615;23;20464;-52
2022/01/22 13:18:58;;;;;;;8.77;4.10;;;7.20;99.90;;;;;;6212727;23;20389;-53
2022/01/22 13:21:28;;;;;;;10.23;4.30;;;7.20;99.90;;;;;;6212516;23;20361;-53
2022/01/22 13:24:07;;;;;;;4.40;3.60;;;7.10;99.90;;;;;;6213019;23;20401;-53
2022/01/22 13:26:42;;;;;;;6.30;3.43;;;7.10;99.90;;;;;;6212585;23;20386;-53
2022/01/22 13:29:22;;;;;;;3.83;3.10;;;7.10;99.90;;;;;;6212796;23;20426;-53
2022/01/22 13:32:12;;;;;;;3.73;3.20;;;7.20;99.90;;;;;;6212530;23;20389;-53
2022/01/22 13:35:09;;;;;;;4.40;3.10;;;7.20;99.90;;;;;;6212153;23;20425;-53
2022/01/22 13:49:19;;;;;;;3.13;2.03;;;7.10;99.90;;;;;;6212304;23;20407;-53
2022/01/22 13:51:45;;;;;;;4.10;2.10;;;7.10;99.90;;;;;;6212088;23;20382;-53
2022/01/22 13:54:12;;;;;;;2.50;1.83;;;7.20;99.90;;;;;;6212160;23;20413;-53
2022/01/22 13:56:55;;;;;;;2.63;1.80;;;7.20;99.90;;;;;;6212395;23;20361;-54
2022/01/22 13:59:23;;;;;;;7.40;1.70;;;7.30;99.90;;;;;;6212388;23;20687;-53
2022/01/22 14:04:40;;;;;;;2.10;1.90;;;7.30;99.90;;;;;;6212818;23;20384;-53
2022/01/22 14:07:18;;;;;;;2.17;1.80;;;7.30;99.90;;;;;;6213027;23;20377;-54
2022/01/22 14:10:18;;;;;;;5.27;1.73;;;7.20;99.90;;;;;;6213207;23;20742;-56
2022/01/22 14:12:47;;;;;;;2.30;1.90;;;7.20;99.90;;;;;;6212277;23;20902;-54
2022/01/22 14:15:27;;;;;;;2.87;1.97;;;7.20;99.90;;;;;;6211605;23;20508;-54
2022/01/22 14:20:43;;;;;;;4.60;2.70;;;7.10;99.90;;;;;;6222394;23;20365;-52
2022/01/22 14:23:10;;;;;;;2.43;2.23;;;7.10;99.90;;;;;;6212365;23;20358;-51
2022/01/22 14:25:59;;;;;;;4.80;2.30;;;7.00;99.90;;;;;;6215387;23;20385;-51
2022/01/22 14:28:40;;;;;;;4.03;2.50;;;7.10;99.90;;;;;;6215657;23;20378;-51
2022/01/22 14:31:23;;;;;;;4.90;2.70;;;7.10;99.90;;;;;;6215077;23;20381;-53
2022/01/22 14:33:49;;;;;;;2.50;2.30;;;7.00;99.90;;;;;;6215219;23;20413;-52
2022/01/22 14:36:17;;;;;;;4.47;2.30;;;6.90;99.90;;;;;;6214948;23;20389;-53
2022/01/22 14:38:48;;;;;;;6.53;2.40;;;6.80;99.90;;;;;;6215463;23;20200;-53
2022/01/22 14:47:01;;;;;;;7.80;3.10;;;6.90;99.90;;;;;;6216975;23;20440;-53
2022/01/22 14:49:36;;;;;;;3.90;2.90;;;7.00;99.90;;;;;;6215432;23;21086;-54
2022/01/22 14:52:02;;;;;;;4.13;2.97;;;6.90;99.90;;;;;;6215952;23;20416;-53
2022/01/22 14:54:32;;;;;;;4.57;2.87;;;6.90;99.90;;;;;;6215591;23;20471;-53
2022/01/22 14:56:58;;;;;;;9.10;2.73;;;6.80;99.90;;;;;;6215315;23;20397;-53